createdAt,value
2019-05-25T00:02:03.612Z,9.40
2019-05-25T00:04:32.192Z,9.40
2019-05-25T00:07:00.784Z,9.30
2019-05-25T00:09:29.399Z,9.20
2019-05-25T00:11:58.029Z,9.10
2019-05-25T00:14:26.614Z,9.00
2019-05-25T00:16:55.170Z,9.00
2019-05-25T00:19:23.754Z,9.00
2019-05-25T00:21:52.306Z,9.00
2019-05-25T00:24:20.795Z,9.00
2019-05-25T00:26:49.374Z,8.90
2019-05-25T00:29:19.418Z,8.80
2019-05-25T00:31:47.942Z,8.70
2019-05-25T00:34:16.602Z,8.80
2019-05-25T00:36:45.567Z,8.80
2019-05-25T00:39:14.931Z,8.90
2019-05-25T00:41:43.601Z,9.00
2019-05-25T00:44:12.154Z,9.00
2019-05-25T00:46:40.703Z,9.00
2019-05-25T00:49:09.282Z,8.90
2019-05-25T00:51:37.947Z,8.80
2019-05-25T00:54:06.513Z,8.70
2019-05-25T00:56:35.093Z,8.70
2019-05-25T00:59:03.643Z,9.00
2019-05-25T01:01:32.214Z,9.10
2019-05-25T01:04:00.734Z,9.20
2019-05-25T01:06:29.549Z,9.20
2019-05-25T01:08:58.166Z,8.90
2019-05-25T01:11:26.700Z,8.80
2019-05-25T01:13:55.283Z,8.70
2019-05-25T01:16:24.150Z,8.60
2019-05-25T01:18:52.735Z,8.50
2019-05-25T01:21:21.310Z,8.40
2019-05-25T01:23:49.862Z,8.30
2019-05-25T01:26:18.369Z,8.30
2019-05-25T01:28:47.023Z,8.20
2019-05-25T01:31:15.556Z,8.10
2019-05-25T01:33:44.239Z,8.10
2019-05-25T01:36:12.859Z,8.10
2019-05-25T01:38:41.341Z,8.10
2019-05-25T01:41:09.927Z,8.00
2019-05-25T01:43:38.702Z,8.00
2019-05-25T01:46:07.256Z,7.90
2019-05-25T01:48:35.841Z,7.90
2019-05-25T01:51:04.506Z,7.90
2019-05-25T01:53:33.066Z,7.90
2019-05-25T01:56:02.323Z,7.90
2019-05-25T01:58:30.941Z,8.10
2019-05-25T02:00:59.489Z,8.20
2019-05-25T02:03:28.925Z,8.10
2019-05-25T02:05:57.473Z,8.10
2019-05-25T02:08:26.031Z,8.10
2019-05-25T02:10:54.748Z,8.20
2019-05-25T02:13:23.340Z,8.20
2019-05-25T02:15:51.887Z,8.20
2019-05-25T02:18:20.467Z,8.20
2019-05-25T02:20:49.018Z,8.20
2019-05-25T02:23:17.556Z,8.20
2019-05-25T02:25:47.719Z,8.30
2019-05-25T02:28:16.261Z,8.30
2019-05-25T02:30:44.871Z,8.30
2019-05-25T02:33:13.464Z,8.30
2019-05-25T02:35:42.173Z,8.30
2019-05-25T02:38:10.712Z,8.20
2019-05-25T02:40:39.311Z,8.20
2019-05-25T02:43:07.848Z,8.20
2019-05-25T02:45:37.107Z,8.10
2019-05-25T02:48:05.906Z,8.10
2019-05-25T02:50:34.490Z,8.10
2019-05-25T02:53:03.082Z,8.20
2019-05-25T02:55:34.726Z,8.30
2019-05-25T02:58:01.955Z,8.40
2019-05-25T03:00:32.714Z,8.50
2019-05-25T03:03:02.544Z,8.50
2019-05-25T03:05:31.229Z,8.60
2019-05-25T03:07:59.839Z,8.70
2019-05-25T03:10:29.566Z,8.60
2019-05-25T03:12:59.693Z,8.60
2019-05-25T03:15:28.262Z,8.60
2019-05-25T03:17:56.903Z,8.60
2019-05-25T03:20:26.274Z,8.70
2019-05-25T03:22:54.806Z,8.70
2019-05-25T03:25:23.489Z,8.80
2019-05-25T03:27:52.103Z,8.90
2019-05-25T03:30:37.565Z,9.00
2019-05-25T03:33:06.509Z,9.00
2019-05-25T03:35:35.045Z,8.90
2019-05-25T03:38:03.652Z,8.90
2019-05-25T03:40:32.196Z,8.90
2019-05-25T03:43:00.748Z,9.00
2019-05-25T03:45:29.298Z,9.00
2019-05-25T03:47:57.880Z,9.00
2019-05-25T03:50:27.294Z,9.10
2019-05-25T03:52:55.911Z,9.10
2019-05-25T03:55:24.518Z,9.20
2019-05-25T03:57:53.074Z,9.40
2019-05-25T04:00:24.763Z,9.70
2019-05-25T04:02:53.428Z,9.90
2019-05-25T04:05:21.963Z,10.00
2019-05-25T04:07:50.616Z,10.20
2019-05-25T04:10:19.254Z,10.50
2019-05-25T04:12:47.867Z,10.60
2019-05-25T04:15:16.458Z,10.70
2019-05-25T04:17:45.090Z,10.70
2019-05-25T04:20:13.640Z,10.70
2019-05-25T04:22:42.195Z,10.80
2019-05-25T04:25:10.866Z,11.10
2019-05-25T04:27:39.393Z,11.30
2019-05-25T04:30:08.749Z,11.50
2019-05-25T04:32:38.215Z,11.50
2019-05-25T04:35:07.206Z,11.60
2019-05-25T04:37:35.930Z,11.70
2019-05-25T04:40:06.511Z,11.90
2019-05-25T04:42:35.068Z,12.10
2019-05-25T04:45:05.746Z,12.20
2019-05-25T04:47:34.315Z,12.30
2019-05-25T04:50:02.859Z,12.40
2019-05-25T04:52:31.336Z,12.40
2019-05-25T04:55:01.125Z,12.50
2019-05-25T04:57:29.669Z,12.60
2019-05-25T04:59:58.228Z,12.70
2019-05-25T05:02:26.911Z,12.60
2019-05-25T05:04:55.532Z,12.70
2019-05-25T05:07:24.086Z,12.80
2019-05-25T05:10:02.048Z,12.80
2019-05-25T05:12:22.881Z,12.70
2019-05-25T05:14:51.531Z,12.70
2019-05-25T05:17:23.555Z,12.80
2019-05-25T05:19:52.289Z,12.80
2019-05-25T05:22:20.929Z,12.80
2019-05-25T05:24:52.419Z,12.80
2019-05-25T05:27:21.383Z,12.80
2019-05-25T05:29:49.863Z,12.80
2019-05-25T05:32:27.006Z,13.10
2019-05-25T05:34:48.793Z,13.40
2019-05-25T05:37:17.986Z,13.70
2019-05-25T05:39:47.562Z,14.10
2019-05-25T05:42:18.796Z,14.40
2019-05-25T05:44:49.274Z,14.60
2019-05-25T05:47:19.608Z,14.80
2019-05-25T05:49:51.126Z,15.50
2019-05-25T05:52:23.942Z,15.60
2019-05-25T05:54:53.922Z,16.60
2019-05-25T05:57:22.481Z,16.10
2019-05-25T05:59:51.189Z,16.70
2019-05-25T06:02:19.864Z,16.90
2019-05-25T06:04:48.451Z,17.40
2019-05-25T06:07:17.032Z,17.10
2019-05-25T06:09:45.610Z,16.70
2019-05-25T06:12:17.089Z,16.60
2019-05-25T06:14:45.663Z,17.00
2019-05-25T06:17:14.401Z,17.60
2019-05-25T06:19:43.073Z,18.50
2019-05-25T06:22:11.631Z,18.70
2019-05-25T06:24:46.820Z,18.60
2019-05-25T06:27:26.458Z,18.90
2019-05-25T06:29:43.166Z,19.80
2019-05-25T06:32:11.871Z,18.30
2019-05-25T06:34:40.412Z,19.00
2019-05-25T06:37:09.091Z,19.30
2019-05-25T06:39:38.391Z,19.40
2019-05-25T06:42:07.131Z,18.70
2019-05-25T06:44:35.724Z,18.60
2019-05-25T06:47:04.542Z,19.70
2019-05-25T06:49:33.139Z,20.30
2019-05-25T06:52:01.677Z,19.80
2019-05-25T06:54:30.266Z,19.90
2019-05-25T06:56:58.817Z,20.30
2019-05-25T06:59:27.441Z,20.50
2019-05-25T07:01:56.189Z,19.80
2019-05-25T07:04:24.789Z,20.90
2019-05-25T07:06:53.338Z,19.50
2019-05-25T07:09:21.989Z,19.60
2019-05-25T07:11:50.528Z,19.10
2019-05-25T07:14:19.230Z,19.10
2019-05-25T07:16:47.821Z,19.10
2019-05-25T07:19:17.304Z,19.90
2019-05-25T07:21:46.099Z,19.60
2019-05-25T07:24:15.184Z,20.30
2019-05-25T07:26:43.831Z,19.90
2019-05-25T07:29:12.653Z,21.20
2019-05-25T07:31:41.288Z,20.20
2019-05-25T07:34:09.853Z,20.10
2019-05-25T07:36:38.404Z,20.50
2019-05-25T07:39:07.470Z,20.90
2019-05-25T07:41:36.060Z,20.20
2019-05-25T07:44:04.888Z,19.80
2019-05-25T07:46:33.590Z,20.40
2019-05-25T07:49:02.540Z,20.50
2019-05-25T07:51:31.191Z,20.60
2019-05-25T07:53:59.707Z,20.50
2019-05-25T07:56:28.264Z,19.90
2019-05-25T07:58:57.108Z,19.80
2019-05-25T08:01:26.202Z,18.80
2019-05-25T08:03:54.866Z,18.90
2019-05-25T08:06:23.413Z,19.90
2019-05-25T08:08:52.004Z,20.30
2019-05-25T08:11:23.159Z,19.50
2019-05-25T08:13:52.040Z,19.50
2019-05-25T08:16:20.768Z,20.10
2019-05-25T08:18:49.439Z,20.20
2019-05-25T08:21:18.476Z,20.20
2019-05-25T08:23:47.108Z,20.30
2019-05-25T08:26:15.747Z,20.20
2019-05-25T08:28:44.757Z,21.10
2019-05-25T08:31:13.491Z,21.10
2019-05-25T08:33:42.236Z,21.90
2019-05-25T08:36:10.843Z,21.90
2019-05-25T08:38:39.466Z,21.20
2019-05-25T08:41:08.119Z,21.40
2019-05-25T08:43:36.702Z,21.90
2019-05-25T08:46:05.278Z,22.50
2019-05-25T08:48:33.766Z,21.90
2019-05-25T08:51:02.395Z,21.50
2019-05-25T08:53:40.548Z,21.60
2019-05-25T08:56:01.271Z,20.80
2019-05-25T08:58:29.908Z,20.30
2019-05-25T09:00:58.616Z,20.30
2019-05-25T09:03:27.239Z,20.30
2019-05-25T09:05:55.871Z,20.00
2019-05-25T09:08:24.398Z,20.00
2019-05-25T09:10:52.999Z,20.40
2019-05-25T09:13:21.562Z,20.10
2019-05-25T09:16:09.505Z,19.80
2019-05-25T09:18:38.171Z,20.10
2019-05-25T09:21:06.904Z,20.30
2019-05-25T09:23:35.515Z,20.80
2019-05-25T09:26:04.134Z,21.10
2019-05-25T09:28:32.690Z,20.30
2019-05-25T09:31:01.302Z,20.50
2019-05-25T09:33:30.180Z,20.90
2019-05-25T09:35:58.959Z,20.90
2019-05-25T09:38:27.576Z,20.00
2019-05-25T09:40:56.199Z,19.90
2019-05-25T09:43:24.768Z,20.60
2019-05-25T09:45:53.513Z,19.70
2019-05-25T09:48:22.063Z,20.00
2019-05-25T09:50:50.621Z,19.90
2019-05-25T09:53:19.282Z,20.10
2019-05-25T09:55:47.856Z,20.20
2019-05-25T09:58:20.497Z,19.80
2019-05-25T10:00:54.586Z,19.30
2019-05-25T10:03:23.381Z,19.20
2019-05-25T10:05:52.148Z,19.10
2019-05-25T10:08:20.807Z,19.00
2019-05-25T10:10:49.491Z,18.90
2019-05-25T10:13:18.051Z,19.70
2019-05-25T10:15:47.625Z,20.00
2019-05-25T10:18:16.398Z,20.00
2019-05-25T10:20:44.952Z,19.90
2019-05-25T10:23:13.671Z,19.90
2019-05-25T10:25:42.172Z,19.60
2019-05-25T10:28:10.787Z,19.40
2019-05-25T10:30:39.463Z,19.30
2019-05-25T10:33:08.051Z,19.20
2019-05-25T10:35:36.648Z,19.10
2019-05-25T10:38:05.296Z,18.90
2019-05-25T10:40:34.267Z,19.00
2019-05-25T10:43:03.096Z,19.40
2019-05-25T10:45:32.118Z,19.70
2019-05-25T10:48:00.676Z,20.40
2019-05-25T10:50:29.284Z,20.70
2019-05-25T10:52:57.872Z,20.60
2019-05-25T10:55:26.421Z,20.70
2019-05-25T10:57:55.046Z,20.30
2019-05-25T11:00:24.135Z,20.90
2019-05-25T11:02:53.361Z,20.70
2019-05-25T11:05:22.033Z,20.20
2019-05-25T11:07:50.938Z,20.60
2019-05-25T11:10:19.951Z,20.50
2019-05-25T11:12:48.578Z,21.00
2019-05-25T11:15:18.291Z,21.40
2019-05-25T11:17:46.994Z,20.70
2019-05-25T11:20:15.926Z,21.10
2019-05-25T11:22:44.836Z,21.80
2019-05-25T11:25:14.045Z,21.30
2019-05-25T11:27:43.016Z,20.80
2019-05-25T11:30:12.292Z,21.00
2019-05-25T11:32:40.988Z,21.40
2019-05-25T11:35:10.574Z,21.10
2019-05-25T11:37:39.381Z,21.30
2019-05-25T11:40:09.227Z,20.80
2019-05-25T11:42:37.817Z,20.30
2019-05-25T11:45:07.720Z,20.40
2019-05-25T11:47:37.196Z,20.20
2019-05-25T11:50:07.996Z,20.20
2019-05-25T11:52:36.685Z,20.20
2019-05-25T11:55:07.924Z,20.40
2019-05-25T11:57:36.484Z,20.10
2019-05-25T12:00:21.763Z,20.00
2019-05-25T12:02:38.238Z,19.50
2019-05-25T12:05:08.603Z,19.00
2019-05-25T12:07:37.201Z,19.10
2019-05-25T12:10:07.602Z,19.20
2019-05-25T12:12:36.204Z,19.40
2019-05-25T12:15:09.399Z,19.30
2019-05-25T12:17:38.401Z,19.20
2019-05-25T12:20:07.919Z,19.40
2019-05-25T12:22:36.497Z,19.30
2019-05-25T12:25:07.714Z,19.30
2019-05-25T12:27:36.300Z,19.20
2019-05-25T12:30:07.406Z,19.20
2019-05-25T12:32:36.047Z,19.40
2019-05-25T12:35:06.837Z,19.50
2019-05-25T12:37:35.448Z,19.60
2019-05-25T12:40:06.054Z,19.70
2019-05-25T12:42:35.266Z,19.60
2019-05-25T12:45:05.911Z,19.30
2019-05-25T12:47:35.845Z,19.20
2019-05-25T12:50:06.303Z,19.20
2019-05-25T12:52:35.116Z,19.20
2019-05-25T12:55:04.403Z,19.10
2019-05-25T12:57:32.989Z,19.10
2019-05-25T13:03:10.947Z,18.90
2019-05-25T13:05:38.718Z,18.70
2019-05-25T13:08:07.407Z,18.50
2019-05-25T13:10:36.009Z,18.30
2019-05-25T13:13:04.775Z,17.80
2019-05-25T13:15:33.290Z,17.30
2019-05-25T13:18:01.909Z,16.90
2019-05-25T13:20:30.468Z,16.70
2019-05-25T13:22:59.108Z,16.50
2019-05-25T13:25:27.737Z,16.20
2019-05-25T13:27:57.072Z,16.10
2019-05-25T13:30:26.278Z,15.90
2019-05-25T13:32:55.162Z,15.90
2019-05-25T13:35:28.351Z,16.30
2019-05-25T13:37:57.558Z,16.50
2019-05-25T13:40:27.023Z,16.70
2019-05-25T13:42:56.382Z,17.10
2019-05-25T13:45:25.596Z,17.20
2019-05-25T13:47:54.754Z,17.10
2019-05-25T13:50:23.759Z,17.30
2019-05-25T13:52:55.386Z,17.40
2019-05-25T13:55:24.709Z,17.60
2019-05-25T13:57:53.864Z,17.80
2019-05-25T14:00:22.897Z,17.90
2019-05-25T14:02:52.519Z,17.90
2019-05-25T14:05:21.610Z,17.80
2019-05-25T14:07:51.335Z,17.70
2019-05-25T14:10:20.897Z,17.50
2019-05-25T14:12:49.705Z,18.00
2019-05-25T14:15:18.893Z,18.40
2019-05-25T14:17:50.449Z,19.00
2019-05-25T14:20:19.785Z,19.60
2019-05-25T14:22:49.481Z,19.70
2019-05-25T14:25:20.382Z,19.70
2019-05-25T14:27:51.647Z,19.80
2019-05-25T14:30:21.272Z,19.80
2019-05-25T14:32:50.658Z,19.40
2019-05-25T14:35:19.718Z,20.00
2019-05-25T14:37:48.940Z,20.70
2019-05-25T14:40:18.410Z,20.70
2019-05-25T14:42:47.860Z,20.60
2019-05-25T14:45:17.070Z,20.60
2019-05-25T14:47:46.171Z,20.40
2019-05-25T14:50:15.673Z,20.70
2019-05-25T14:52:44.730Z,20.00
2019-05-25T14:55:14.350Z,20.60
2019-05-25T14:57:44.147Z,20.80
2019-05-25T15:00:15.016Z,21.40
2019-05-25T15:02:44.088Z,21.40
2019-05-25T15:05:13.572Z,21.10
2019-05-25T15:07:43.187Z,21.20
2019-05-25T15:10:12.899Z,21.40
2019-05-25T15:12:42.307Z,21.10
2019-05-25T15:15:11.594Z,21.10
2019-05-25T15:17:43.137Z,21.30
2019-05-25T15:20:13.665Z,21.90
2019-05-25T15:22:42.332Z,21.90
2019-05-25T15:25:12.659Z,21.70
2019-05-25T15:27:41.449Z,22.00
2019-05-25T15:30:10.527Z,20.60
2019-05-25T15:32:39.446Z,21.10
2019-05-25T15:35:08.943Z,21.00
2019-05-25T15:37:37.689Z,21.30
2019-05-25T15:40:11.029Z,21.60
2019-05-25T15:42:39.816Z,21.20
2019-05-25T15:45:11.410Z,21.40
2019-05-25T15:47:40.353Z,21.30
2019-05-25T15:50:11.215Z,20.90
2019-05-25T15:52:40.064Z,20.60
2019-05-25T15:55:09.866Z,20.50
2019-05-25T15:57:38.475Z,20.30
2019-05-25T16:00:09.439Z,20.30
2019-05-25T16:02:38.120Z,20.30
2019-05-25T16:05:08.287Z,19.40
2019-05-25T16:07:40.177Z,19.20
2019-05-25T16:10:09.722Z,19.10
2019-05-25T16:12:38.306Z,19.00
2019-05-25T16:15:08.772Z,18.90
2019-05-25T16:17:37.917Z,18.70
2019-05-25T16:20:06.534Z,18.70
2019-05-25T16:22:35.093Z,18.50
2019-05-25T16:25:04.869Z,18.50
2019-05-25T16:27:33.429Z,18.50
2019-05-25T16:30:02.005Z,18.50
2019-05-25T16:32:30.649Z,18.50
2019-05-25T16:34:59.211Z,18.70
2019-05-25T16:37:27.935Z,18.80
2019-05-25T16:39:56.585Z,18.80
2019-05-25T16:42:25.278Z,18.80
2019-05-25T16:44:53.831Z,18.90
2019-05-25T16:47:22.464Z,18.80
2019-05-25T16:49:51.075Z,18.90
2019-05-25T16:52:19.817Z,18.90
2019-05-25T16:54:50.650Z,18.90
2019-05-25T16:57:19.188Z,19.10
2019-05-25T16:59:47.757Z,19.20
2019-05-25T17:02:16.339Z,19.30
2019-05-25T17:04:45.256Z,19.20
2019-05-25T17:07:13.826Z,19.20
2019-05-25T17:09:42.476Z,19.10
2019-05-25T17:12:11.089Z,19.10
2019-05-25T17:14:39.756Z,19.00
2019-05-25T17:17:08.867Z,18.90
2019-05-25T17:19:37.434Z,18.90
2019-05-25T17:22:06.119Z,18.70
2019-05-25T17:24:34.767Z,18.70
2019-05-25T17:27:03.326Z,18.60
2019-05-25T17:29:31.893Z,18.50
2019-05-25T17:32:00.654Z,18.50
2019-05-25T17:34:29.776Z,18.60
2019-05-25T17:37:00.246Z,18.50
2019-05-25T17:39:29.662Z,18.70
2019-05-25T17:42:11.773Z,18.30
2019-05-25T17:44:41.149Z,18.30
2019-05-25T17:47:11.637Z,18.10
2019-05-25T17:50:01.755Z,17.90
2019-05-25T17:52:31.810Z,17.70
2019-05-25T17:55:01.114Z,17.50
2019-05-25T17:57:30.381Z,17.10
2019-05-25T17:59:59.701Z,16.80
2019-05-25T18:02:29.143Z,16.70
2019-05-25T18:04:59.414Z,16.70
2019-05-25T18:07:28.593Z,16.60
2019-05-25T18:09:57.261Z,16.30
2019-05-25T18:12:29.431Z,16.20
2019-05-25T18:14:59.069Z,16.00
2019-05-25T18:17:27.885Z,15.80
2019-05-25T18:19:56.778Z,15.60
2019-05-25T18:22:29.508Z,15.50
2019-05-25T18:24:58.672Z,15.30
2019-05-25T18:27:28.175Z,15.20
2019-05-25T18:29:57.672Z,15.10
2019-05-25T18:32:26.703Z,15.00
2019-05-25T18:34:56.032Z,15.00
2019-05-25T18:37:25.328Z,14.90
2019-05-25T18:39:55.472Z,14.70
2019-05-25T18:42:25.561Z,14.60
2019-05-25T18:44:55.535Z,14.40
2019-05-25T18:47:25.649Z,14.30
2019-05-25T18:50:05.808Z,14.20
2019-05-25T18:52:39.573Z,14.20
2019-05-25T18:55:14.055Z,14.10
2019-05-25T18:57:46.033Z,14.00
2019-05-25T19:00:17.015Z,13.90
2019-05-25T19:02:46.871Z,13.70
2019-05-25T19:08:09.531Z,13.50
2019-05-25T19:10:38.614Z,13.40
2019-05-25T19:13:08.759Z,13.40
2019-05-25T19:15:41.149Z,13.40
2019-05-25T19:18:14.125Z,13.50
2019-05-25T19:20:44.400Z,13.40
2019-05-25T19:23:13.510Z,13.40
2019-05-25T19:25:42.718Z,13.30
2019-05-25T19:28:12.586Z,13.20
2019-05-25T19:30:43.597Z,13.10
2019-05-25T19:33:12.940Z,13.10
2019-05-25T19:35:41.464Z,13.10
2019-05-25T19:38:10.236Z,13.10
2019-05-25T19:40:38.884Z,13.20
2019-05-25T19:43:07.545Z,13.20
2019-05-25T19:45:36.189Z,13.30
2019-05-25T19:48:05.482Z,13.40
2019-05-25T19:50:34.337Z,13.40
2019-05-25T19:53:04.086Z,13.50
2019-05-25T19:55:33.212Z,13.50
2019-05-25T19:58:01.826Z,13.60
2019-05-25T20:00:30.441Z,13.70
2019-05-25T20:02:59.051Z,13.70
2019-05-25T20:05:28.056Z,13.70
2019-05-25T20:07:57.425Z,13.70
2019-05-25T20:10:28.367Z,13.50
2019-05-25T20:12:58.096Z,13.40
2019-05-25T20:15:26.987Z,13.50
2019-05-25T20:17:55.722Z,13.60
2019-05-25T20:20:24.448Z,13.60
2019-05-25T20:22:53.938Z,13.70
2019-05-25T20:25:24.875Z,13.70
2019-05-25T20:27:53.873Z,13.80
2019-05-25T20:30:23.329Z,13.80
2019-05-25T20:32:52.862Z,14.00
2019-05-25T20:35:32.526Z,14.20
2019-05-25T20:37:53.319Z,14.30
2019-05-25T20:40:22.779Z,14.30
2019-05-25T20:42:51.935Z,14.20
2019-05-25T20:45:21.223Z,14.00
2019-05-25T20:47:49.905Z,13.90
2019-05-25T20:50:18.707Z,13.90
2019-05-25T20:52:47.440Z,13.70
2019-05-25T20:55:16.032Z,13.70
2019-05-25T20:57:47.127Z,13.60
2019-05-25T21:00:24.038Z,13.50
2019-05-25T21:03:05.129Z,13.50
2019-05-25T21:05:25.412Z,13.50
2019-05-25T21:07:54.206Z,13.40
2019-05-25T21:10:22.776Z,13.30
2019-05-25T21:12:51.338Z,13.20
2019-05-25T21:15:19.998Z,13.00
2019-05-25T21:18:07.904Z,12.90
2019-05-25T21:20:36.456Z,12.90
2019-05-25T21:23:05.137Z,12.90
2019-05-25T21:25:33.785Z,12.80
2019-05-25T21:28:03.127Z,12.80
2019-05-25T21:30:31.913Z,12.80
2019-05-25T21:33:00.495Z,12.70
2019-05-25T21:35:29.033Z,12.80
2019-05-25T21:37:57.704Z,12.80
2019-05-25T21:40:26.260Z,12.80
2019-05-25T21:42:55.991Z,12.90
2019-05-25T21:45:24.538Z,12.90
2019-05-25T21:47:56.086Z,12.90
2019-05-25T21:50:23.311Z,13.00
2019-05-25T21:52:51.908Z,13.00
2019-05-25T21:55:20.541Z,13.00
2019-05-25T21:57:49.101Z,13.10
2019-05-25T22:00:20.146Z,13.00
2019-05-25T22:02:48.785Z,13.00
2019-05-25T22:05:17.781Z,13.00
2019-05-25T22:07:46.387Z,13.00
2019-05-25T22:10:15.084Z,13.00
2019-05-25T22:12:44.107Z,13.00
2019-05-25T22:15:13.111Z,13.00
2019-05-25T22:17:41.764Z,13.00
2019-05-25T22:20:11.936Z,13.00
2019-05-25T22:22:40.574Z,13.10
2019-05-25T22:25:09.399Z,13.10
2019-05-25T22:27:37.893Z,13.20
2019-05-25T22:30:08.726Z,13.20
2019-05-25T22:32:37.353Z,13.20
2019-05-25T22:35:08.039Z,13.30
2019-05-25T22:37:36.631Z,13.30
2019-05-25T22:40:09.583Z,13.40
2019-05-25T22:42:38.234Z,13.40
2019-05-25T22:45:07.964Z,13.40
2019-05-25T22:47:36.562Z,13.30
2019-05-25T22:50:06.069Z,13.30
2019-05-25T22:52:34.745Z,13.30
2019-05-25T22:55:03.969Z,13.20
2019-05-25T22:57:32.536Z,13.20
2019-05-25T23:00:01.168Z,13.20
2019-05-25T23:02:30.278Z,13.10
2019-05-25T23:04:58.832Z,13.20
2019-05-25T23:07:27.362Z,13.10
2019-05-25T23:09:56.013Z,13.20
2019-05-25T23:12:24.662Z,13.20
2019-05-25T23:14:53.206Z,13.20
2019-05-25T23:17:21.773Z,13.20
2019-05-25T23:19:50.343Z,13.20
2019-05-25T23:22:19.068Z,13.10
2019-05-25T23:24:47.683Z,13.10
2019-05-25T23:27:16.357Z,13.00
2019-05-25T23:29:44.943Z,13.00
2019-05-25T23:32:13.530Z,13.00
2019-05-25T23:34:42.064Z,13.10
2019-05-25T23:37:14.776Z,13.10
2019-05-25T23:39:40.896Z,13.10
2019-05-25T23:42:10.265Z,13.00
2019-05-25T23:44:38.912Z,13.00
2019-05-25T23:47:07.516Z,13.10
2019-05-25T23:49:36.078Z,13.10
2019-05-25T23:52:04.744Z,13.10
2019-05-25T23:54:33.372Z,13.10
2019-05-25T23:57:01.921Z,13.10
2019-05-25T23:59:30.574Z,13.10
